Time;durP1;ratioP1;P1;durP2;ratioP2;P2;SDS_P1;SDS_P2;PMS_P1;PMS_P2;Temp;Humidity;BMP_temperature;BMP_pressure;BME280_temperature;BME280_humidity;BME280_pressure;Samples;Min_cycle;Max_cycle;Signal;HPM_P1;HPM_P2
2023/03/11 00:13:48;;;;;;;28.87;12.17;;;;;;;10.19;100.00;99173.53;31300221;28;20056;-77
2023/03/11 00:28:50;;;;;;;31.57;14.40;;;;;;;9.65;100.00;99150.09;31328350;28;20118;-77
2023/03/11 00:43:52;;;;;;;38.57;16.77;;;;;;;9.35;100.00;99128.94;31344549;28;20048;-78
2023/03/11 00:58:54;;;;;;;27.30;12.77;;;;;;;9.09;100.00;99120.78;31321795;28;20060;-78
2023/03/11 01:13:56;;;;;;;28.47;12.07;;;;;;;9.20;100.00;99099.59;31301687;28;20055;-76
2023/03/11 01:28:58;;;;;;;18.57;9.73;;;;;;;9.39;100.00;99094.38;31322032;28;20115;-78
2023/03/11 01:44:01;;;;;;;23.43;9.50;;;;;;;9.31;100.00;99087.66;31312331;28;20514;-78
2023/03/11 01:59:05;;;;;;;18.80;9.67;;;;;;;9.11;100.00;99071.63;31317746;28;20079;-77
2023/03/11 02:14:08;;;;;;;21.17;9.40;;;;;;;8.72;100.00;99075.50;31298797;28;20041;-82
2023/03/11 02:29:16;;;;;;;14.63;8.50;;;;;;;8.59;100.00;99071.97;31296178;28;20061;-80
2023/03/11 02:44:18;;;;;;;16.97;8.60;;;;;;;8.60;100.00;99046.44;31333569;28;20041;-82
2023/03/11 02:59:20;;;;;;;22.40;10.03;;;;;;;8.64;100.00;99057.94;31326662;28;20061;-81
2023/03/11 03:14:23;;;;;;;17.57;8.00;;;;;;;8.66;100.00;99039.31;31314767;28;20044;-80
2023/03/11 03:29:24;;;;;;;40.37;8.80;;;;;;;8.47;100.00;99033.66;31317348;28;20056;-77
2023/03/11 03:44:26;;;;;;;46.97;8.67;;;;;;;8.39;100.00;99029.63;31322619;28;20044;-77
2023/03/11 03:59:28;;;;;;;66.43;8.93;;;;;;;8.41;100.00;98996.75;31320806;28;20727;-81
2023/03/11 04:14:30;;;;;;;73.03;10.00;;;;;;;8.68;100.00;98982.84;31303103;28;20103;-80
2023/03/11 04:29:32;;;;;;;75.73;9.37;;;;;;;8.83;100.00;98994.75;31281827;28;20099;-81
2023/03/11 04:44:35;;;;;;;46.37;8.23;;;;;;;8.61;100.00;98999.28;31296617;28;22205;-81
2023/03/11 04:59:37;;;;;;;76.47;10.57;;;;;;;8.82;100.00;99014.88;31298320;28;20049;-82
2023/03/11 05:14:39;;;;;;;50.63;8.70;;;;;;;8.93;100.00;98998.34;31301957;28;20049;-82
2023/03/11 05:29:42;;;;;;;65.20;7.63;;;;;;;9.03;100.00;99002.66;31303150;28;20102;-81
2023/03/11 05:44:44;;;;;;;47.10;6.93;;;;;;;9.08;100.00;98992.03;31308454;28;20574;-81
2023/03/11 05:59:46;;;;;;;69.60;7.13;;;;;;;8.78;100.00;99004.16;31296342;28;20091;-81
2023/03/11 06:14:48;;;;;;;40.77;5.20;;;;;;;9.09;100.00;98982.72;31292049;28;20115;-82
2023/03/11 06:29:53;;;;;;;25.57;5.13;;;;;;;9.47;100.00;98998.13;31298075;28;20050;-81
2023/03/11 06:44:55;;;;;;;26.67;4.00;;;;;;;9.73;100.00;98960.91;31316791;28;20748;-83
2023/03/11 06:59:57;;;;;;;35.87;4.87;;;;;;;9.92;100.00;98936.19;31328029;28;20057;-84
2023/03/11 07:15:00;;;;;;;40.87;4.53;;;;;;;10.14;100.00;98913.75;31375282;28;20098;-86
2023/03/11 07:30:07;;;;;;;12.97;4.50;;;;;;;10.30;100.00;98916.28;31338270;28;20052;-78
2023/03/11 07:45:10;;;;;;;18.57;4.80;;;;;;;10.53;100.00;98880.50;31326115;28;20053;-82
2023/03/11 08:00:12;;;;;;;11.07;5.07;;;;;;;10.80;100.00;98876.38;31361249;28;20079;-82
2023/03/11 08:15:14;;;;;;;7.97;4.83;;;;;;;10.87;100.00;98865.19;31354102;28;20045;-83
2023/03/11 08:30:16;;;;;;;13.73;6.37;;;;;;;11.28;100.00;98845.66;31353226;28;20103;-87
2023/03/11 08:45:18;;;;;;;14.83;6.50;;;;;;;11.51;100.00;98819.81;31368376;28;20110;-86
2023/03/11 09:00:21;;;;;;;12.50;6.70;;;;;;;11.61;100.00;98820.53;31349997;28;20083;-87
2023/03/11 09:15:23;;;;;;;12.10;5.77;;;;;;;11.83;100.00;98804.06;31382618;28;20057;-83
2023/03/11 09:30:26;;;;;;;11.10;6.93;;;;;;;12.12;100.00;98809.72;31326238;28;20125;-81
2023/03/11 09:45:31;;;;;;;15.07;8.10;;;;;;;12.30;100.00;98762.59;31294615;28;20053;-80
2023/03/11 10:00:33;;;;;;;13.70;7.23;;;;;;;12.49;100.00;98736.81;31291973;28;20060;-81
2023/03/11 10:15:57;;;;;;;14.27;7.73;;;;;;;12.72;100.00;98708.06;31309841;28;20059;-80
2023/03/11 10:31:20;;;;;;;11.47;7.07;;;;;;;12.70;100.00;98669.66;31322243;28;20067;-74
2023/03/11 10:46:25;;;;;;;13.47;7.50;;;;;;;12.74;100.00;98650.44;31347649;28;20445;-82
2023/03/11 11:01:28;;;;;;;15.37;8.13;;;;;;;12.76;100.00;98623.44;31374132;28;20079;-86
2023/03/11 11:16:35;;;;;;;18.30;8.53;;;;;;;12.75;100.00;98613.81;31369728;28;20048;-83
2023/03/11 11:31:39;;;;;;;15.17;7.13;;;;;;;12.75;100.00;98600.19;31358773;28;20049;-84
2023/03/11 11:47:11;;;;;;;11.77;6.87;;;;;;;12.70;100.00;98612.47;31305445;28;20045;-84
2023/03/11 12:02:32;;;;;;;18.43;7.63;;;;;;;12.73;100.00;98581.59;31370189;28;20092;-84
2023/03/11 12:17:39;;;;;;;11.07;6.67;;;;;;;12.69;100.00;98577.56;31343751;28;20410;-84
2023/03/11 12:32:48;;;;;;;13.97;6.60;;;;;;;12.81;100.00;98565.63;31379412;28;20064;-85
2023/03/11 12:48:28;;;;;;;12.83;6.63;;;;;;;12.91;100.00;98564.31;31314444;28;20053;-84
2023/03/11 13:03:38;;;;;;;12.07;6.33;;;;;;;13.11;100.00;98564.38;31345255;28;20405;-79
2023/03/11 13:18:42;;;;;;;17.03;7.27;;;;;;;13.13;100.00;98551.03;31318217;28;20061;-80
2023/03/11 13:34:01;;;;;;;15.57;7.53;;;;;;;13.11;100.00;98509.16;31324367;28;20080;-77
2023/03/11 13:49:32;;;;;;;14.57;6.47;;;;;;;13.07;100.00;98514.78;31249340;28;20493;-78
2023/03/11 14:04:36;;;;;;;19.47;6.10;;;;;;;13.26;100.00;98480.66;31324809;28;20056;-78
2023/03/11 14:19:38;;;;;;;14.67;5.73;;;;;;;13.29;100.00;98462.59;31316134;28;20045;-76
2023/03/11 14:34:40;;;;;;;8.27;4.30;;;;;;;12.93;100.00;98442.03;31357591;28;20052;-88
2023/03/11 14:49:42;;;;;;;15.67;7.03;;;;;;;12.81;100.00;98445.81;31317857;28;20057;-79
2023/03/11 15:04:45;;;;;;;16.03;6.97;;;;;;;12.53;100.00;98416.19;31348390;28;20456;-77
2023/03/11 15:19:47;;;;;;;16.60;6.37;;;;;;;12.48;100.00;98433.22;31340798;28;20552;-78
2023/03/11 15:35:06;;;;;;;15.93;7.00;;;;;;;12.44;100.00;98435.38;31352567;28;20049;-78
2023/03/11 15:50:18;;;;;;;14.03;7.30;;;;;;;12.37;100.00;98438.47;31353013;28;20529;-78
2023/03/11 16:05:26;;;;;;;21.10;7.80;;;;;;;12.05;100.00;98436.66;31342891;28;20048;-76
2023/03/11 16:20:35;;;;;;;13.83;7.87;;;;;;;12.00;100.00;98462.56;31344778;28;20053;-76
2023/03/11 16:35:37;;;;;;;18.83;7.47;;;;;;;11.83;100.00;98424.16;31333316;28;20383;-75
2023/03/11 16:50:40;;;;;;;16.53;7.83;;;;;;;12.07;100.00;98394.19;31343655;28;20144;-77
2023/03/11 17:05:42;;;;;;;18.93;8.20;;;;;;;12.17;100.00;98389.41;31321003;28;20178;-76
2023/03/11 17:20:44;;;;;;;24.90;9.70;;;;;;;12.10;100.00;98368.03;31322212;28;20363;-75
2023/03/11 17:35:46;;;;;;;19.30;9.20;;;;;;;12.27;100.00;98350.00;31323949;28;20057;-77
2023/03/11 17:50:48;;;;;;;22.80;9.40;;;;;;;12.22;100.00;98328.91;31359262;28;20083;-76
2023/03/11 18:05:59;;;;;;;15.53;8.33;;;;;;;12.27;100.00;98309.19;31331931;28;20048;-77
2023/03/11 18:21:04;;;;;;;15.93;7.23;;;;;;;12.06;100.00;98285.88;31323705;28;20057;-77
2023/03/11 18:36:17;;;;;;;24.63;9.70;;;;;;;12.12;100.00;98273.09;31340033;28;20478;-76
2023/03/11 18:51:21;;;;;;;24.23;8.63;;;;;;;12.07;100.00;98287.38;31348559;28;20059;-77
2023/03/11 19:06:25;;;;;;;19.47;8.00;;;;;;;12.03;100.00;98276.69;31326681;28;20571;-75
2023/03/11 19:21:28;;;;;;;20.73;9.00;;;;;;;11.94;100.00;98231.31;31348337;28;20107;-75
2023/03/11 19:36:30;;;;;;;15.97;8.30;;;;;;;11.91;100.00;98240.44;31349541;28;20478;-76
2023/03/11 19:51:32;;;;;;;19.97;9.63;;;;;;;12.01;100.00;98262.06;31359815;28;20422;-78
2023/03/11 20:06:50;;;;;;;20.20;9.23;;;;;;;11.90;100.00;98241.63;31364328;28;20439;-78
2023/03/11 20:21:52;;;;;;;20.50;8.23;;;;;;;11.77;100.00;98224.16;31371005;28;20053;-75
2023/03/11 20:36:53;;;;;;;23.87;9.37;;;;;;;11.92;100.00;98206.56;31323115;28;20490;-75
2023/03/11 20:51:55;;;;;;;22.03;9.50;;;;;;;11.94;100.00;98195.97;31320979;28;20061;-78
2023/03/11 21:06:57;;;;;;;20.67;9.07;;;;;;;11.88;100.00;98202.56;31337484;28;20060;-73
2023/03/11 21:21:59;;;;;;;22.30;10.10;;;;;;;11.76;100.00;98182.63;31316954;28;20060;-75
2023/03/11 21:37:01;;;;;;;19.20;8.77;;;;;;;11.70;100.00;98189.91;31327266;28;20398;-75
2023/03/11 21:52:05;;;;;;;22.83;9.43;;;;;;;11.65;100.00;98165.34;31290488;28;20053;-75
2023/03/11 22:07:07;;;;;;;22.83;10.20;;;;;;;11.54;100.00;98134.09;31289017;28;20055;-76
2023/03/11 22:22:09;;;;;;;19.47;10.17;;;;;;;11.61;100.00;98094.88;31329241;28;20136;-73
2023/03/11 22:37:11;;;;;;;21.10;10.67;;;;;;;11.77;100.00;98083.53;31330685;28;20452;-75
2023/03/11 22:52:13;;;;;;;20.33;9.37;;;;;;;11.68;100.00;98051.03;31365230;28;20061;-74
2023/03/11 23:07:15;;;;;;;17.57;8.97;;;;;;;11.87;100.00;98025.09;31337002;28;20064;-74
2023/03/11 23:22:17;;;;;;;21.20;10.40;;;;;;;11.93;100.00;98004.16;31355348;28;20075;-75
2023/03/11 23:37:19;;;;;;;20.63;9.70;;;;;;;12.05;100.00;97974.34;31361454;28;20049;-73
2023/03/11 23:52:21;;;;;;;22.93;9.70;;;;;;;12.09;100.00;97944.97;31339645;28;20103;-73
